Time;durP1;ratioP1;P1;durP2;ratioP2;P2;SDS_P1;SDS_P2;PMS_P1;PMS_P2;Temp;Humidity;BMP_temperature;BMP_pressure;BME280_temperature;BME280_humidity;BME280_pressure;Samples;Min_cycle;Max_cycle;Signal;HPM_P1;HPM_P2
2022/07/14 00:01:02;;;;;;;9.02;2.30;;;15.80;99.90;;;;;;5051909;28;20037;-79
2022/07/14 00:03:27;;;;;;;8.38;2.20;;;15.80;99.90;;;;;;5034288;28;20083;-79
2022/07/14 00:05:53;;;;;;;7.40;2.55;;;15.70;99.90;;;;;;5051886;28;20064;-79
2022/07/14 00:08:19;;;;;;;9.63;2.47;;;15.60;99.90;;;;;;5052294;28;20502;-79
2022/07/14 00:10:44;;;;;;;12.05;2.55;;;15.60;99.90;;;;;;5052016;28;20044;-79
2022/07/14 00:13:10;;;;;;;10.27;2.58;;;15.70;99.90;;;;;;5050888;28;20044;-79
2022/07/14 00:15:35;;;;;;;12.73;3.67;;;15.50;99.90;;;;;;5050765;28;20041;-79
2022/07/14 00:18:02;;;;;;;11.82;2.88;;;15.60;99.90;;;;;;5050762;28;20044;-79
2022/07/14 00:20:28;;;;;;;9.90;3.78;;;15.60;99.90;;;;;;5050738;28;20395;-79
2022/07/14 00:22:58;;;;;;;13.32;2.80;;;15.40;99.90;;;;;;5050678;28;20049;-79
2022/07/14 00:25:24;;;;;;;9.93;2.40;;;15.50;99.90;;;;;;5050403;28;20037;-79
2022/07/14 00:27:50;;;;;;;7.88;2.72;;;15.30;99.90;;;;;;5050568;28;20041;-79
2022/07/14 00:30:16;;;;;;;8.77;2.47;;;15.30;99.90;;;;;;5051711;28;20041;-79
2022/07/14 00:32:41;;;;;;;10.00;2.33;;;15.40;99.90;;;;;;5050553;28;20041;-79
2022/07/14 00:35:08;;;;;;;9.05;2.90;;;15.20;99.90;;;;;;5050330;28;20106;-79
2022/07/14 00:37:34;;;;;;;9.55;2.42;;;15.20;99.90;;;;;;5050488;28;20037;-79
2022/07/14 00:40:03;;;;;;;11.45;2.97;;;15.20;99.90;;;;;;5051659;28;20045;-79
2022/07/14 00:42:32;;;;;;;8.27;2.67;;;15.30;99.90;;;;;;5050587;28;20037;-79
2022/07/14 00:44:59;;;;;;;10.07;2.83;;;15.10;99.90;;;;;;5067121;28;20124;-79
2022/07/14 00:47:24;;;;;;;9.40;3.10;;;15.00;99.90;;;;;;5050430;28;20037;-79
2022/07/14 00:49:55;;;;;;;13.45;3.67;;;15.10;99.90;;;;;;5051193;28;20045;-79
2022/07/14 00:52:22;;;;;;;7.93;2.80;;;14.90;99.90;;;;;;5050321;28;20041;-79
2022/07/14 00:54:48;;;;;;;9.07;2.80;;;14.90;99.90;;;;;;5050174;28;20045;-79
2022/07/14 00:57:13;;;;;;;12.43;2.83;;;15.00;99.90;;;;;;5050255;28;20037;-77
2022/07/14 00:59:39;;;;;;;10.05;3.03;;;15.10;99.90;;;;;;5049981;28;20033;-77
2022/07/14 01:02:05;;;;;;;10.77;3.22;;;15.10;99.90;;;;;;5050406;28;20513;-79
2022/07/14 01:04:30;;;;;;;12.52;2.63;;;15.00;99.90;;;;;;5050223;28;20577;-79
2022/07/14 01:06:56;;;;;;;11.85;2.88;;;15.00;99.90;;;;;;5054679;28;20041;-79
2022/07/14 01:09:22;;;;;;;11.15;3.85;;;15.00;99.90;;;;;;5054180;28;20047;-79
2022/07/14 01:11:47;;;;;;;8.38;2.85;;;14.80;99.90;;;;;;5055696;28;20063;-79
2022/07/14 01:14:13;;;;;;;6.95;2.67;;;14.90;99.90;;;;;;5054135;28;20523;-79
2022/07/14 01:16:39;;;;;;;10.68;2.58;;;14.90;99.90;;;;;;5054438;28;20051;-77
2022/07/14 01:19:04;;;;;;;13.77;3.47;;;14.80;99.90;;;;;;5054025;28;20037;-77
2022/07/14 01:21:30;;;;;;;13.82;4.00;;;14.90;99.90;;;;;;5053766;28;20045;-79
2022/07/14 01:23:55;;;;;;;7.45;2.85;;;14.80;99.90;;;;;;5053526;28;20076;-79
2022/07/14 01:26:21;;;;;;;7.30;2.88;;;14.90;99.90;;;;;;5054873;28;20498;-79
2022/07/14 01:28:46;;;;;;;9.00;3.20;;;14.80;99.90;;;;;;5070798;28;20451;-80
2022/07/14 01:31:12;;;;;;;12.38;3.17;;;14.70;99.90;;;;;;5053380;28;20574;-79
2022/07/14 01:33:37;;;;;;;7.88;3.05;;;14.70;99.90;;;;;;5053950;28;20469;-79
2022/07/14 01:36:03;;;;;;;8.45;2.92;;;14.80;99.90;;;;;;5053662;28;20564;-79
2022/07/14 01:38:29;;;;;;;9.02;3.15;;;14.70;99.90;;;;;;5053684;28;20123;-79
2022/07/14 01:40:55;;;;;;;17.17;4.53;;;14.80;99.90;;;;;;5070037;28;20040;-79
2022/07/14 01:43:20;;;;;;;8.57;3.00;;;14.60;99.90;;;;;;5053540;28;20779;-79
2022/07/14 01:45:46;;;;;;;13.60;3.25;;;14.60;99.90;;;;;;5053382;28;20399;-79
2022/07/14 01:48:11;;;;;;;13.93;3.70;;;14.70;99.90;;;;;;5053343;28;20037;-79
2022/07/14 01:50:37;;;;;;;10.55;3.33;;;14.70;99.90;;;;;;5052970;28;20037;-79
2022/07/14 01:53:02;;;;;;;8.70;3.22;;;14.60;99.90;;;;;;5053479;28;20052;-79
2022/07/14 01:55:28;;;;;;;13.50;3.25;;;14.70;99.90;;;;;;5053401;28;20086;-79
2022/07/14 01:57:53;;;;;;;9.02;2.90;;;14.70;99.90;;;;;;5053545;28;20075;-79
2022/07/14 02:00:19;;;;;;;8.10;3.53;;;14.70;99.90;;;;;;5052800;28;20279;-79
2022/07/14 02:02:45;;;;;;;12.93;3.08;;;14.50;99.90;;;;;;5036351;28;20136;-79
2022/07/14 02:05:10;;;;;;;9.65;3.42;;;14.60;99.90;;;;;;5052966;28;20123;-79
2022/07/14 02:07:37;;;;;;;13.25;3.78;;;14.60;99.90;;;;;;5053028;28;20044;-79
2022/07/14 02:12:49;;;;;;;10.73;3.38;;;14.50;99.90;;;;;;5052843;28;20510;-79
2022/07/14 02:15:14;;;;;;;11.05;2.97;;;14.50;99.90;;;;;;5053169;28;20041;-79
2022/07/14 02:17:40;;;;;;;7.07;2.97;;;14.40;99.90;;;;;;5051741;28;20521;-79
2022/07/14 02:20:08;;;;;;;11.63;3.35;;;14.40;99.90;;;;;;5052559;28;20040;-79
2022/07/14 02:22:33;;;;;;;8.85;2.58;;;14.50;99.90;;;;;;5052689;28;20045;-79
2022/07/14 02:24:59;;;;;;;9.60;3.22;;;14.30;99.90;;;;;;5052756;28;20037;-79
2022/07/14 02:27:24;;;;;;;7.70;3.10;;;14.30;99.90;;;;;;5052582;28;20033;-79
2022/07/14 02:29:50;;;;;;;8.80;3.33;;;14.40;99.90;;;;;;5052641;28;20044;-79
2022/07/14 02:32:15;;;;;;;8.27;3.45;;;14.20;99.90;;;;;;5052895;28;20033;-79
2022/07/14 02:34:41;;;;;;;10.60;3.15;;;14.20;99.90;;;;;;5052780;28;20037;-79
2022/07/14 02:37:06;;;;;;;8.52;3.00;;;14.40;99.90;;;;;;5052937;28;20033;-79
2022/07/14 02:39:32;;;;;;;8.35;3.80;;;14.30;99.90;;;;;;5052295;28;20041;-79
2022/07/14 02:41:57;;;;;;;8.13;2.88;;;14.20;99.90;;;;;;5052570;28;20473;-79
2022/07/14 02:44:23;;;;;;;7.82;3.00;;;14.10;99.90;;;;;;5053548;28;20037;-79
2022/07/14 02:46:48;;;;;;;7.82;2.83;;;14.20;99.90;;;;;;5052112;28;20044;-79
2022/07/14 02:49:14;;;;;;;14.10;4.30;;;14.10;99.90;;;;;;5052282;28;20124;-79
2022/07/14 02:51:40;;;;;;;10.68;3.63;;;14.00;99.90;;;;;;5052500;28;20041;-79
2022/07/14 02:54:05;;;;;;;10.65;3.25;;;14.00;99.90;;;;;;5052368;28;20040;-79
2022/07/14 02:56:31;;;;;;;11.13;3.10;;;14.00;99.90;;;;;;5052503;28;20048;-79
2022/07/14 02:58:56;;;;;;;8.82;3.25;;;13.90;99.90;;;;;;5052179;28;20498;-79
2022/07/14 03:01:22;;;;;;;8.60;3.20;;;14.00;99.90;;;;;;5051780;28;20128;-79
2022/07/14 03:03:48;;;;;;;8.80;3.72;;;14.00;99.90;;;;;;5053401;28;20045;-79
2022/07/14 03:06:18;;;;;;;9.23;3.40;;;13.80;99.90;;;;;;5052160;28;20033;-79
2022/07/14 03:08:45;;;;;;;9.90;3.33;;;13.90;99.90;;;;;;5052225;28;20048;-79
2022/07/14 03:11:11;;;;;;;11.20;3.92;;;13.90;99.90;;;;;;5051751;28;20076;-79
2022/07/14 03:13:37;;;;;;;6.50;3.00;;;13.90;99.90;;;;;;5051940;28;20041;-78
2022/07/14 03:16:06;;;;;;;8.27;3.60;;;13.80;99.90;;;;;;5050628;28;20048;-78
2022/07/14 03:18:32;;;;;;;11.52;3.90;;;13.70;99.90;;;;;;5039585;28;20033;-79
2022/07/14 03:20:57;;;;;;;13.82;3.70;;;13.70;99.90;;;;;;5049186;28;20083;-78
2022/07/14 03:23:23;;;;;;;7.40;3.38;;;13.70;99.90;;;;;;5044673;28;20049;-78
2022/07/14 03:25:49;;;;;;;12.50;3.45;;;13.70;99.90;;;;;;5051473;28;20033;-79
2022/07/14 03:28:15;;;;;;;9.70;3.92;;;13.80;99.90;;;;;;5051180;28;20087;-78
2022/07/14 03:30:41;;;;;;;5.78;3.00;;;13.80;99.90;;;;;;5052789;28;20037;-79
2022/07/14 03:33:07;;;;;;;11.55;3.75;;;13.70;99.90;;;;;;5034798;28;20128;-78
2022/07/14 03:35:36;;;;;;;5.28;3.05;;;13.80;99.90;;;;;;5051213;28;20037;-78
2022/07/14 03:38:02;;;;;;;12.30;3.08;;;13.60;99.90;;;;;;5051566;28;20090;-78
2022/07/14 03:40:27;;;;;;;10.70;3.05;;;13.70;99.90;;;;;;5051235;28;20103;-78
2022/07/14 03:42:53;;;;;;;11.02;3.15;;;13.70;99.90;;;;;;5042754;28;20049;-78
2022/07/14 03:45:18;;;;;;;8.38;3.08;;;13.80;99.90;;;;;;5051074;28;20033;-78
2022/07/14 03:47:44;;;;;;;12.77;3.58;;;13.70;99.90;;;;;;5051263;28;20028;-78
2022/07/14 03:50:10;;;;;;;6.40;2.33;;;13.70;99.90;;;;;;5050927;28;20075;-78
2022/07/14 03:52:36;;;;;;;5.47;1.83;;;13.80;99.90;;;;;;5051227;28;20040;-78
2022/07/14 03:55:02;;;;;;;7.03;2.20;;;13.80;99.90;;;;;;5050857;28;20049;-78
2022/07/14 03:57:27;;;;;;;8.05;2.03;;;13.60;99.90;;;;;;5050987;28;20052;-79
2022/07/14 03:59:54;;;;;;;3.83;1.77;;;13.60;99.90;;;;;;5052089;28;20045;-78
2022/07/14 04:02:19;;;;;;;3.90;1.80;;;13.60;99.90;;;;;;5050996;28;20041;-78
2022/07/14 04:04:45;;;;;;;4.63;1.83;;;13.50;99.90;;;;;;5051030;28;20037;-78
2022/07/14 04:07:10;;;;;;;3.60;1.98;;;13.70;99.90;;;;;;5051111;28;20124;-78
2022/07/14 04:09:36;;;;;;;3.85;2.17;;;13.70;99.90;;;;;;5050368;28;20037;-78
2022/07/14 04:12:02;;;;;;;9.07;2.20;;;13.60;99.90;;;;;;5050713;28;20487;-78
2022/07/14 04:14:27;;;;;;;6.97;2.72;;;13.70;99.90;;;;;;5050735;28;20462;-78
2022/07/14 04:16:53;;;;;;;6.28;2.22;;;13.80;99.90;;;;;;5050708;28;20644;-78
2022/07/14 04:19:19;;;;;;;11.57;2.28;;;13.80;99.90;;;;;;5033862;28;20071;-78
2022/07/14 04:21:45;;;;;;;5.07;2.85;;;13.90;99.90;;;;;;5050451;28;20047;-78
2022/07/14 04:24:11;;;;;;;4.30;2.33;;;13.80;99.90;;;;;;5050413;28;20048;-78
2022/07/14 04:26:37;;;;;;;5.72;2.30;;;13.80;99.90;;;;;;5050592;28;20041;-77
2022/07/14 04:29:04;;;;;;;7.00;2.70;;;13.90;99.90;;;;;;5051885;28;20076;-77
2022/07/14 04:31:30;;;;;;;8.30;2.10;;;13.90;99.90;;;;;;5050241;28;20041;-77
2022/07/14 04:33:56;;;;;;;6.53;2.30;;;13.90;99.90;;;;;;5050818;28;20033;-77
2022/07/14 04:36:22;;;;;;;6.78;2.65;;;14.00;99.90;;;;;;5050403;28;20086;-78
2022/07/14 04:38:48;;;;;;;4.28;2.70;;;14.00;99.90;;;;;;5051548;28;20052;-77
2022/07/14 04:41:13;;;;;;;10.27;3.42;;;14.00;99.90;;;;;;5049483;28;20040;-77
2022/07/14 04:43:39;;;;;;;4.10;2.35;;;14.00;99.90;;;;;;5050064;28;20048;-78
2022/07/14 04:46:05;;;;;;;6.90;2.80;;;14.00;99.90;;;;;;5050050;28;20035;-77
2022/07/14 04:48:31;;;;;;;6.95;2.60;;;14.20;99.90;;;;;;5050247;28;20398;-77
2022/07/14 04:53:41;;;;;;;5.22;2.60;;;14.40;99.90;;;;;;5051447;28;20465;-78
2022/07/14 04:56:06;;;;;;;6.10;2.55;;;14.40;99.90;;;;;;5050287;28;20037;-77
2022/07/14 04:58:32;;;;;;;6.53;3.17;;;14.40;99.90;;;;;;5051507;28;20095;-77
2022/07/14 05:01:00;;;;;;;7.32;3.10;;;14.80;99.90;;;;;;5051230;28;20044;-78
2022/07/14 05:03:26;;;;;;;6.88;3.08;;;14.90;99.90;;;;;;5050242;28;20151;-77
2022/07/14 05:05:52;;;;;;;7.93;2.40;;;15.00;99.90;;;;;;5050014;28;20482;-77
2022/07/14 05:08:17;;;;;;;9.90;2.30;;;15.20;99.90;;;;;;5050398;28;20506;-78
2022/07/14 05:10:43;;;;;;;7.55;2.35;;;15.50;99.90;;;;;;5049958;28;20044;-78
2022/07/14 05:13:08;;;;;;;7.50;2.47;;;15.60;99.90;;;;;;5050169;28;20080;-78
2022/07/14 05:15:34;;;;;;;10.25;2.17;;;15.80;99.90;;;;;;5050225;28;20047;-77
2022/07/14 05:17:59;;;;;;;6.40;2.33;;;15.90;99.90;;;;;;5051383;28;20115;-77
2022/07/14 05:20:25;;;;;;;7.72;1.73;;;16.10;99.90;;;;;;5045607;28;20467;-77
2022/07/14 05:22:51;;;;;;;4.85;1.77;;;16.40;99.90;;;;;;5037372;28;20059;-78
2022/07/14 05:25:16;;;;;;;13.43;2.05;;;16.50;99.90;;;;;;5048816;28;20076;-76
2022/07/14 05:27:42;;;;;;;8.45;2.42;;;16.50;99.90;;;;;;5050153;28;20502;-78
2022/07/14 05:30:09;;;;;;;4.28;1.85;;;16.80;99.90;;;;;;5053518;28;20037;-78
2022/07/14 05:32:35;;;;;;;4.75;2.25;;;16.90;99.90;;;;;;5065404;28;20066;-77
2022/07/14 05:35:02;;;;;;;4.53;1.90;;;17.20;99.90;;;;;;5062958;28;20495;-77
2022/07/14 05:37:27;;;;;;;7.03;2.42;;;17.40;99.90;;;;;;5081464;28;20049;-78
2022/07/14 05:39:53;;;;;;;5.75;1.90;;;17.60;99.90;;;;;;5064666;28;20040;-78
2022/07/14 05:42:19;;;;;;;7.05;2.63;;;17.50;99.90;;;;;;5056406;28;20074;-78
2022/07/14 05:44:45;;;;;;;10.25;2.58;;;17.50;99.90;;;;;;5050100;28;20045;-77
2022/07/14 05:47:11;;;;;;;9.77;2.17;;;17.70;99.90;;;;;;5058311;28;20488;-77
2022/07/14 05:49:42;;;;;;;5.70;1.80;;;17.90;99.90;;;;;;5050073;28;20106;-77
2022/07/14 05:52:12;;;;;;;5.57;2.00;;;18.00;99.90;;;;;;5052853;28;20162;-78
2022/07/14 05:54:38;;;;;;;5.90;1.50;;;18.20;99.90;;;;;;5070037;28;20036;-78
2022/07/14 05:57:04;;;;;;;5.20;1.65;;;18.40;99.90;;;;;;5053696;28;20095;-78
2022/07/14 05:59:29;;;;;;;9.75;1.92;;;18.70;99.90;;;;;;5036589;28;20179;-78
2022/07/14 06:01:55;;;;;;;5.65;1.58;;;18.80;99.90;;;;;;5053030;28;20123;-77
2022/07/14 06:04:20;;;;;;;5.22;1.30;;;19.00;99.90;;;;;;5054185;28;20142;-78
2022/07/14 06:06:47;;;;;;;6.75;1.83;;;19.00;99.90;;;;;;5053223;28;20037;-78
2022/07/14 06:09:13;;;;;;;5.75;1.35;;;19.20;99.90;;;;;;5069448;28;20033;-77
2022/07/14 06:11:41;;;;;;;8.27;1.40;;;19.40;99.90;;;;;;5069917;28;20540;-75
2022/07/14 06:14:07;;;;;;;6.18;1.40;;;19.40;99.90;;;;;;5053194;28;20049;-79
2022/07/14 06:16:34;;;;;;;4.32;1.20;;;19.50;99.90;;;;;;5052965;28;20037;-79
2022/07/14 06:18:59;;;;;;;7.43;1.42;;;19.70;99.90;;;;;;5054291;28;20128;-79
2022/07/14 06:21:25;;;;;;;6.53;1.52;;;19.90;99.90;;;;;;5052671;28;20542;-79
2022/07/14 06:23:50;;;;;;;4.25;1.20;;;19.90;99.90;;;;;;5053148;28;20414;-80
2022/07/14 06:26:16;;;;;;;5.45;1.17;;;20.10;99.90;;;;;;5053319;28;20071;-78
2022/07/14 06:28:42;;;;;;;3.85;1.40;;;20.30;99.90;;;;;;5053645;28;20041;-78
2022/07/14 06:31:08;;;;;;;4.03;1.10;;;20.50;99.90;;;;;;5053742;28;20091;-79
2022/07/14 06:33:34;;;;;;;3.78;1.33;;;20.50;99.90;;;;;;5070691;28;20041;-78
2022/07/14 06:35:59;;;;;;;5.32;1.35;;;20.60;99.30;;;;;;5053278;28;20052;-80
2022/07/14 06:38:25;;;;;;;6.47;1.30;;;20.60;99.20;;;;;;5070010;28;20135;-79
2022/07/14 06:40:50;;;;;;;3.65;1.05;;;20.70;99.00;;;;;;5052239;28;20049;-79
2022/07/14 06:43:16;;;;;;;5.90;1.55;;;21.00;98.90;;;;;;5052405;28;20040;-79
2022/07/14 06:45:42;;;;;;;4.47;0.95;;;21.00;98.60;;;;;;5052340;28;20037;-79
2022/07/14 06:48:07;;;;;;;5.63;1.10;;;21.20;98.00;;;;;;5052434;28;20043;-79
2022/07/14 06:50:33;;;;;;;6.07;1.10;;;21.30;97.90;;;;;;5047509;28;20031;-79
2022/07/14 06:52:59;;;;;;;8.18;1.52;;;21.50;97.40;;;;;;5057942;28;20695;-79
2022/07/14 06:55:25;;;;;;;4.18;1.17;;;21.40;97.10;;;;;;5041587;28;20037;-79
2022/07/14 06:57:51;;;;;;;4.85;0.88;;;21.50;96.70;;;;;;5032412;28;20041;-79
2022/07/14 07:00:18;;;;;;;4.55;1.13;;;21.70;96.30;;;;;;5051129;28;20441;-78
2022/07/14 07:02:43;;;;;;;4.95;0.73;;;21.50;95.90;;;;;;5050271;28;20065;-80
2022/07/14 07:07:58;;;;;;;4.38;1.00;;;21.70;94.60;;;;;;5052527;28;20124;-80
2022/07/14 07:10:24;;;;;;;3.75;0.90;;;21.20;93.40;;;;;;5051880;28;20041;-80
2022/07/14 07:12:50;;;;;;;7.00;1.45;;;21.30;94.00;;;;;;5053880;28;20041;-80
2022/07/14 07:15:15;;;;;;;4.60;0.70;;;21.40;93.50;;;;;;5068894;28;20067;-79
2022/07/14 07:17:41;;;;;;;4.97;1.45;;;21.50;92.70;;;;;;5052230;28;20055;-80
2022/07/14 07:20:09;;;;;;;5.68;0.90;;;21.70;92.00;;;;;;5051861;28;20045;-80
2022/07/14 07:22:35;;;;;;;4.63;0.65;;;21.50;92.40;;;;;;5054544;28;20045;-80
2022/07/14 07:25:02;;;;;;;4.25;1.10;;;21.40;92.40;;;;;;5055553;28;20128;-80
2022/07/14 07:27:28;;;;;;;3.75;1.05;;;21.20;93.20;;;;;;5057036;28;20490;-81
2022/07/14 07:29:54;;;;;;;4.20;1.08;;;20.80;93.90;;;;;;5058393;28;20056;-79
2022/07/14 07:32:19;;;;;;;3.83;0.60;;;20.40;93.90;;;;;;5072344;28;20033;-76
2022/07/14 07:34:45;;;;;;;5.30;0.85;;;20.10;94.40;;;;;;5068520;28;20525;-78
2022/07/14 07:37:10;;;;;;;2.80;0.60;;;19.80;94.70;;;;;;5068595;28;20044;-79
2022/07/14 07:39:36;;;;;;;4.70;0.93;;;19.80;95.20;;;;;;5051625;28;20132;-79
2022/07/14 07:42:02;;;;;;;4.90;1.10;;;20.10;95.10;;;;;;5051380;28;20036;-78
2022/07/14 07:44:30;;;;;;;3.53;0.70;;;20.50;95.10;;;;;;5051236;28;20099;-78
2022/07/14 07:46:56;;;;;;;3.55;0.80;;;20.90;94.40;;;;;;5068020;28;20045;-78
2022/07/14 07:49:21;;;;;;;5.05;0.80;;;21.30;94.10;;;;;;5052428;28;20045;-79
2022/07/14 07:51:47;;;;;;;3.80;0.68;;;21.10;93.10;;;;;;5052481;28;20041;-78
2022/07/14 07:54:12;;;;;;;3.00;0.80;;;20.90;93.50;;;;;;5050946;28;20032;-78
2022/07/14 07:56:38;;;;;;;5.45;0.55;;;20.90;93.50;;;;;;5050893;28;20094;-78
2022/07/14 07:59:03;;;;;;;3.15;0.90;;;20.90;93.40;;;;;;5067844;28;20127;-78
2022/07/14 08:01:29;;;;;;;4.05;0.65;;;21.10;92.60;;;;;;5049562;28;20044;-79
2022/07/14 08:03:54;;;;;;;3.55;0.70;;;21.30;91.80;;;;;;5040494;28;20053;-78
2022/07/14 08:06:20;;;;;;;3.33;0.90;;;21.20;91.20;;;;;;5056627;28;20044;-78
2022/07/14 08:08:46;;;;;;;2.05;0.50;;;21.30;91.10;;;;;;5038776;28;20039;-79
2022/07/14 08:11:12;;;;;;;5.18;1.05;;;21.50;91.50;;;;;;5030939;28;20045;-79
2022/07/14 08:13:38;;;;;;;2.63;0.50;;;21.70;91.40;;;;;;5030899;28;20053;-78
2022/07/14 08:16:04;;;;;;;2.60;0.50;;;21.90;90.80;;;;;;5032232;28;20451;-79
2022/07/14 08:18:30;;;;;;;3.95;0.60;;;21.90;90.30;;;;;;5032343;28;20064;-79
2022/07/14 08:20:56;;;;;;;1.90;0.47;;;21.90;90.90;;;;;;5030632;28;20041;-79
2022/07/14 08:23:21;;;;;;;2.40;0.70;;;21.90;90.60;;;;;;5047470;28;20041;-79
2022/07/14 08:25:47;;;;;;;5.38;0.93;;;21.80;89.40;;;;;;5031090;28;20035;-78
2022/07/14 08:28:13;;;;;;;3.55;0.45;;;22.00;89.80;;;;;;5050907;28;20037;-79
2022/07/14 08:30:39;;;;;;;4.82;0.55;;;22.40;88.70;;;;;;5033837;28;20044;-79
2022/07/14 08:33:04;;;;;;;3.85;1.05;;;22.60;87.70;;;;;;5050765;28;20036;-79
2022/07/14 08:35:31;;;;;;;3.85;0.63;;;22.60;86.10;;;;;;5050505;28;20093;-78
2022/07/14 08:37:56;;;;;;;4.13;0.80;;;22.10;86.60;;;;;;5050560;28;20171;-79
2022/07/14 08:40:24;;;;;;;6.43;0.80;;;21.70;88.10;;;;;;5050458;28;20076;-79
2022/07/14 08:42:52;;;;;;;4.05;0.70;;;21.50;88.70;;;;;;5050428;28;20155;-79
2022/07/14 08:45:20;;;;;;;3.90;0.60;;;21.70;90.20;;;;;;5067142;28;20037;-79
2022/07/14 08:47:46;;;;;;;7.47;0.88;;;21.70;89.60;;;;;;5050476;28;20037;-79
2022/07/14 08:50:18;;;;;;;4.00;0.70;;;22.00;89.50;;;;;;5050261;28;20049;-79
2022/07/14 08:52:46;;;;;;;4.17;0.70;;;22.20;86.30;;;;;;5050698;28;20395;-79
2022/07/14 08:55:13;;;;;;;2.58;0.68;;;22.10;84.90;;;;;;5067294;28;20632;-79
2022/07/14 08:57:41;;;;;;;1.67;0.68;;;22.10;84.80;;;;;;5033766;28;20107;-79
2022/07/14 09:00:12;;;;;;;4.43;0.65;;;22.00;84.40;;;;;;5051534;28;20037;-78
2022/07/14 09:02:39;;;;;;;1.38;0.40;;;22.10;84.90;;;;;;5067064;28;20045;-78
2022/07/14 09:05:05;;;;;;;3.10;0.52;;;22.00;85.50;;;;;;5067284;28;20393;-79
2022/07/14 09:07:34;;;;;;;2.63;0.52;;;21.90;84.00;;;;;;5067077;28;20041;-79
2022/07/14 09:10:05;;;;;;;3.55;0.90;;;21.90;84.80;;;;;;5066647;28;20041;-79
2022/07/14 09:12:31;;;;;;;2.60;0.50;;;21.90;86.10;;;;;;5050518;28;20434;-79
2022/07/14 09:17:56;;;;;;;1.73;0.60;;;21.40;86.50;;;;;;5050267;28;20422;-78
2022/07/14 09:20:31;;;;;;;3.92;0.55;;;21.30;86.00;;;;;;5066544;28;20502;-78
2022/07/14 09:22:59;;;;;;;4.90;0.93;;;21.40;86.00;;;;;;5048563;28;20092;-79
2022/07/14 09:25:26;;;;;;;8.45;0.80;;;21.40;86.60;;;;;;5035566;28;20040;-79
2022/07/14 09:27:52;;;;;;;4.72;0.55;;;21.40;86.50;;;;;;5070089;28;20037;-79
2022/07/14 09:30:18;;;;;;;6.25;0.93;;;21.50;86.80;;;;;;5054283;28;20123;-80
2022/07/14 09:32:56;;;;;;;3.15;0.68;;;21.30;87.70;;;;;;5054536;28;20072;-79
2022/07/14 09:35:34;;;;;;;5.75;0.80;;;21.20;88.50;;;;;;5046416;28;20095;-77
2022/07/14 09:38:14;;;;;;;1.38;0.52;;;20.90;86.90;;;;;;5028905;28;20121;-78
2022/07/14 09:40:39;;;;;;;2.92;0.70;;;20.90;87.40;;;;;;5044383;28;20045;-77
2022/07/14 09:43:08;;;;;;;4.95;0.73;;;21.10;89.70;;;;;;5037577;28;20046;-78
2022/07/14 09:45:36;;;;;;;3.17;1.05;;;20.90;88.70;;;;;;5033956;28;20033;-78
2022/07/14 09:48:11;;;;;;;4.00;0.68;;;20.90;87.80;;;;;;5033798;28;20033;-78
2022/07/14 09:50:54;;;;;;;3.78;0.80;;;20.90;86.40;;;;;;5033457;28;20037;-78
2022/07/14 09:53:31;;;;;;;7.00;0.90;;;21.10;87.70;;;;;;5033732;28;20041;-78
2022/07/14 09:56:08;;;;;;;2.45;0.63;;;20.90;86.40;;;;;;5033580;28;20049;-79
2022/07/14 09:58:51;;;;;;;1.75;0.60;;;20.80;87.30;;;;;;5050402;28;20041;-78
2022/07/14 10:01:18;;;;;;;2.30;0.60;;;20.80;88.70;;;;;;5050126;28;20056;-78
2022/07/14 10:03:47;;;;;;;4.07;0.70;;;20.70;88.10;;;;;;5040456;28;20134;-78
2022/07/14 10:06:14;;;;;;;5.70;0.93;;;20.80;88.90;;;;;;5028452;28;20064;-77
2022/07/14 10:08:43;;;;;;;4.22;0.50;;;20.90;90.70;;;;;;5053520;28;20041;-77
2022/07/14 10:11:13;;;;;;;3.03;0.50;;;21.00;91.20;;;;;;5054225;28;20071;-78
2022/07/14 10:13:39;;;;;;;2.30;0.80;;;21.20;90.80;;;;;;5046057;28;20033;-78
2022/07/14 10:16:06;;;;;;;5.82;1.00;;;21.20;90.50;;;;;;5051978;28;20060;-77
2022/07/14 10:18:32;;;;;;;2.70;0.68;;;21.10;90.30;;;;;;5054121;28;20498;-79
2022/07/14 10:21:00;;;;;;;3.72;0.82;;;21.10;88.50;;;;;;5054548;28;20072;-78
2022/07/14 10:23:29;;;;;;;3.10;0.88;;;21.10;87.20;;;;;;5054462;28;20041;-78
2022/07/14 10:25:57;;;;;;;2.53;1.00;;;21.10;88.20;;;;;;5054131;28;20530;-79
2022/07/14 10:28:23;;;;;;;1.75;0.50;;;21.10;88.90;;;;;;5053404;28;20037;-79
2022/07/14 10:31:10;;;;;;;3.97;1.25;;;21.20;88.20;;;;;;5053636;28;20390;-77
2022/07/14 10:33:38;;;;;;;3.63;0.60;;;21.30;88.80;;;;;;5053066;28;20037;-76
2022/07/14 10:36:37;;;;;;;3.15;0.60;;;21.20;88.60;;;;;;5052856;28;20052;-76
2022/07/14 10:39:19;;;;;;;2.13;0.60;;;21.10;88.00;;;;;;5037780;28;20064;-76
2022/07/14 10:42:23;;;;;;;2.63;0.50;;;20.70;88.20;;;;;;5053805;28;20045;-78
2022/07/14 10:44:50;;;;;;;5.68;1.20;;;20.60;89.40;;;;;;5055236;28;20057;-78
2022/07/14 10:47:17;;;;;;;4.15;0.70;;;20.40;90.10;;;;;;5053893;28;20045;-78
2022/07/14 10:50:06;;;;;;;3.20;0.85;;;20.50;90.60;;;;;;5053567;28;20029;-78
2022/07/14 10:52:35;;;;;;;1.98;0.80;;;20.50;90.50;;;;;;5049016;28;20060;-78
2022/07/14 10:55:15;;;;;;;2.83;0.77;;;20.60;91.20;;;;;;5053126;28;20040;-79
2022/07/14 10:58:03;;;;;;;2.50;0.80;;;20.60;91.60;;;;;;5053701;28;20044;-78
2022/07/14 11:00:43;;;;;;;2.85;0.50;;;20.70;90.80;;;;;;5046344;28;20426;-78
2022/07/14 11:03:24;;;;;;;1.40;0.43;;;20.60;91.20;;;;;;5052707;28;20041;-77
2022/07/14 11:06:03;;;;;;;2.78;0.52;;;20.60;91.20;;;;;;5052468;28;20033;-78
2022/07/14 11:08:29;;;;;;;5.22;1.02;;;20.50;91.00;;;;;;5052956;28;20079;-77
2022/07/14 11:10:57;;;;;;;4.05;0.75;;;20.50;90.50;;;;;;5054850;28;20072;-78
2022/07/14 11:13:23;;;;;;;2.70;0.50;;;20.40;91.00;;;;;;5052753;28;20395;-78
2022/07/14 11:15:54;;;;;;;3.22;0.32;;;20.20;90.40;;;;;;5042540;28;20050;-78
2022/07/14 11:18:26;;;;;;;4.60;0.77;;;20.20;91.60;;;;;;5042100;28;20090;-78
2022/07/14 11:21:06;;;;;;;3.15;0.63;;;20.20;92.30;;;;;;5060474;28;20076;-77
2022/07/14 11:23:48;;;;;;;4.70;0.73;;;20.10;91.80;;;;;;5048348;28;20545;-77
2022/07/14 11:26:32;;;;;;;5.13;1.20;;;20.10;91.30;;;;;;5053156;28;20044;-77
2022/07/14 11:28:59;;;;;;;4.18;0.88;;;20.10;90.70;;;;;;5034391;28;20037;-78
2022/07/14 11:31:25;;;;;;;2.22;0.50;;;20.10;91.70;;;;;;5048475;28;20116;-77
2022/07/14 11:36:59;;;;;;;2.97;0.73;;;20.20;91.80;;;;;;5033704;28;20183;-78
2022/07/14 11:39:31;;;;;;;2.85;0.65;;;20.20;91.70;;;;;;5033280;28;20049;-77
2022/07/14 11:42:14;;;;;;;2.25;0.47;;;20.20;92.30;;;;;;5049795;28;20180;-77
2022/07/14 11:44:39;;;;;;;4.95;1.15;;;20.30;92.60;;;;;;5050123;28;20041;-77
2022/07/14 11:47:09;;;;;;;4.22;0.82;;;20.50;92.70;;;;;;5016896;28;20033;-77
2022/07/14 11:49:36;;;;;;;3.30;0.50;;;20.60;91.60;;;;;;5016528;28;20041;-77
2022/07/14 11:52:05;;;;;;;3.67;0.90;;;20.90;91.70;;;;;;5050235;28;20042;-77
2022/07/14 11:54:31;;;;;;;2.25;0.60;;;21.20;92.60;;;;;;5050077;28;20037;-77
2022/07/14 11:57:03;;;;;;;3.17;0.60;;;21.40;91.60;;;;;;5049960;28;20048;-78
2022/07/14 11:59:28;;;;;;;4.28;2.35;;;21.50;90.40;;;;;;5032596;28;20388;-77
2022/07/14 12:02:11;;;;;;;4.25;0.88;;;21.60;91.10;;;;;;5049852;28;20049;-77
2022/07/14 12:04:58;;;;;;;2.15;0.55;;;21.70;91.30;;;;;;5032795;28;20080;-77
2022/07/14 12:07:44;;;;;;;4.32;0.38;;;21.50;88.20;;;;;;5032808;28;20069;-78
2022/07/14 12:10:15;;;;;;;3.50;1.00;;;21.30;86.80;;;;;;5033452;28;20041;-78
2022/07/14 12:12:43;;;;;;;2.85;0.63;;;21.10;85.90;;;;;;5032573;28;20509;-78
2022/07/14 12:15:09;;;;;;;2.17;0.50;;;21.10;87.30;;;;;;5032672;28;20131;-78
2022/07/14 12:17:49;;;;;;;4.07;0.60;;;20.90;88.30;;;;;;5033035;28;20068;-77
2022/07/14 12:20:15;;;;;;;3.58;0.90;;;20.80;87.60;;;;;;5032379;28;20045;-77
2022/07/14 12:22:45;;;;;;;2.53;0.60;;;20.60;90.00;;;;;;5032827;28;20049;-78
2022/07/14 12:25:26;;;;;;;4.90;0.85;;;20.50;90.10;;;;;;5033123;28;20443;-77
2022/07/14 12:27:58;;;;;;;2.97;0.80;;;20.30;91.00;;;;;;5033151;28;20075;-78
2022/07/14 12:31:09;;;;;;;3.35;1.13;;;19.90;91.10;;;;;;5032256;28;20376;-79
2022/07/14 12:34:04;;;;;;;4.63;0.73;;;19.90;92.50;;;;;;5017024;28;20053;-78
2022/07/14 12:36:30;;;;;;;3.22;1.50;;;19.80;93.90;;;;;;5028504;28;20049;-78
2022/07/14 12:38:58;;;;;;;3.42;0.80;;;19.70;94.50;;;;;;5049227;28;20048;-78
2022/07/14 12:41:25;;;;;;;5.40;0.95;;;19.70;95.40;;;;;;5032267;28;20128;-78
2022/07/14 12:47:27;;;;;;;4.00;0.57;;;19.60;93.40;;;;;;5099134;22;20068;-80
2022/07/14 12:50:29;;;;;;;4.15;0.70;;;19.50;92.70;;;;;;4921773;29;20564;-78
2022/07/14 12:53:56;;;;;;;3.47;0.55;;;19.70;93.50;;;;;;4914717;29;20052;-80
2022/07/14 12:57:12;;;;;;;2.03;0.63;;;19.80;94.20;;;;;;4914565;29;20052;-78
2022/07/14 13:00:01;;;;;;;7.28;1.00;;;19.80;94.20;;;;;;4908637;29;20488;-78
2022/07/14 13:03:15;;;;;;;4.60;1.10;;;19.70;93.70;;;;;;5006710;28;20085;-78
2022/07/14 13:09:16;;;;;;;4.18;0.80;;;19.60;94.30;;;;;;4972636;28;20116;-77
2022/07/14 13:11:48;;;;;;;4.90;1.30;;;19.50;94.90;;;;;;4995055;28;20558;-77
2022/07/14 13:14:17;;;;;;;3.50;0.95;;;19.40;94.60;;;;;;4995485;28;20056;-77